Terminal Aerodrome Forecast
Issued by NWS Cleveland, OH

Home | Current Version | Previous Version | Graphics & Text | Print | Product List | Glossary Off
Versions: 1 2 3 4 5 6 7 8 9 10 11 12 13 14 15 16 17 18 19 20 21 22 23 24 25 26 27 28 29 30 31 32 33 34 35 36 37 38 39 40 41

000
FTUS41 KCLE 032000 AAB
TAFCLE
TAF AMD
KCLE 032030Z 0321/0424 16011KT 4SM -RA BR OVC020 WS020/22040KT
      TEMPO 0321/0322 3SM -RA BR OVC012
     FM032200 19013KT 3SM -SHRA BR SCT006 OVC012 WS020/22040KT
      TEMPO 0322/0401 2SM -RA BR OVC006
     FM040100 22015G25KT 2SM -RA BR OVC006
     FM040700 27014KT 2SM -SN OVC005
     FM041400 28014KT P6SM VCSH BKN020 OVC150=

USA.gov is the U.S. government's official web portal to all federal, state and local government web resources and services.